Airfield :
LOGIN :

Register | Disclaimer

   EN    FR    IT 

 










Legend :    VFR   Marginal VFR   IFR   Intensive IFR   Very Intensive IFR
Visi :
Ceiling :
>= 8 km
>= 3000ft
5 to 8 km
1000 to 3000 ft
1500m to 5 km
500 to 1000 ft
800 to 1500m
200 to 500 ft
< 800m
< 200 ft
Symbols :   Thunderstorms  Fog  Heavy snow  Heavy precipitations  Wind > 20 kt
SIGMETs :     Misc.  Thunderstorms  Icing  Turbulence  Mountain Waves  Volcanic Ashes







- Airport Elevation : 200 ft


EBBL - Klein Brogel AB

CURRENT METAR :
  • 160855Z AUTO 24004KT 6000 FEW045/// BKN150/// 01/01 Q1011 WHT

EXPIRED METARs :
  • 160825Z AUTO 25004KT 6000 BKN029/// BKN050/// BKN150/// 01/00 Q1010 WHT
  • 160816Z AUTO 25004KT 5000 SCT028/// SCT050/// BKN150/// 01/00 Q1010 WHT
  • 160805Z AUTO 26004KT 4900 FEW028/// 00/00 Q1010 GRN
  • 160755Z AUTO 26005KT 5000 FEW029/// 00/00 Q1010 WHT
  • 160725Z AUTO 26004KT 3900 BR NCD 00/M00 Q1009 GRN
  • 160717Z AUTO 26004KT 5000 BR NCD 00/M00 Q1009 WHT
  • 160655Z AUTO 25004KT 3600 BR FEW038/// M00/M00 Q1009 YLO
  • 160625Z AUTO 26004KT 2300 BR BKN033/// 00/00 Q1009 YLO
  • 160555Z AUTO 27004KT 1700 BR FEW031/// 00/00 Q1008 YLO

Expired Forecast.
No reported NOTAMs for that airfield.



MET'MAP, your aeronautical weather chart ! - Copyright ORBIFLY December 2007 - Disclaimer

ORBIFLY MET'MAP TEAM :

Programming & Development : Alexandra Zaïnal
Concept & Development : Baudouin d'Aumeries
Co-Development & Prog : Marc-Olivier Méhu
Technical & hardware support : Manuel Goepfert

Contact : metmap@orbifly.com




SOURCES & CREDITS :

   NOAA